Flight Track Log - Related Links

Times and Time Zones

All times are in EDT time to prevent confusion due to time zone crossing. See the UPS1121 flight status page for this flight to view local times or setup timezone preferences in your user account.

Time Position Orientation Groundspeed Altitude Reporting Facility
EDT Latitude Longitude Course Direction KTS MPH feet Rate Location/Type
20:37 42.7403 -73.8083 171° South 151 174 1,400  Level Boston Center
20:38 42.7256 -73.8053 171° South 150 173 2,500 3,000 Climbing Boston Center
20:39 42.6694 -73.8011 177° South 214 246 5,300 3,025 Climbing Boston Center
20:40 42.6136 -73.7633 154° Southeast 273 314 8,600 2,660 Climbing Boston Center
20:41 42.5789 -73.7033 128° Southeast 261 300 10,000 1,023 Climbing Boston Center
20:41 42.5419 -73.6406 129° Southeast 301 346 10,100 58 Climbing Boston Center
20:42 42.4806 -73.5464 131° Southeast 326 375 10,100  Level Boston Center
20:43 42.4231 -73.4497 129° Southeast 330 380 10,100  Level Boston Center
20:44 42.3594 -73.3419 129° Southeast 335 386 10,100 -50 Level Boston Center
20:45 42.3017 -73.2456 129° Southeast 337 388 10,000 -248 Descending Boston Center
20:46 42.2775 -73.1389 107° East 288 331 9,600 -885 Descending Boston Center
20:47 42.2572 -73.0403 105° East 277 319 8,200 -1,388 Descending Boston Center
20:48 42.2367 -72.9447 106° East 270 311 6,800 -1,339 Descending Boston Center
20:49 42.2164 -72.8494 106° East 261 300 5,500 -1,339 Descending Boston Center
20:50 42.1978 -72.7567 105° East 255 293 4,100 -744 Descending Boston Center
20:51 42.1625 -72.6867 124° Southeast 216 249 4,000 -49 Descending Boston Center
20:52 42.1208 -72.6306 135° Southeast 201 231 4,000 -248 Level Boston Center
20:53 42.0772 -72.5856 143° Southeast 198 228 3,500 -645 Descending Boston Center
20:54 42.0336 -72.5714 166° South 144 166 2,700 -787 Descending Boston Center
20:55 42.0086 -72.5939 214° Southwest 114 131 1,900 -694 Descending Boston Center
20:56 41.9856 -72.6244 225° Southwest 113 130 1,300 -600 Descending Boston Center

Login

Don't have an account? Register now (free) for customized features, flight alerts, and more!